sensor_id;sensor_type;location;lat;lon;timestamp;pressure;altitude;pressure_sealevel;temperature;humidity
39309;BME280;26019;47.510;19.122;2023-11-22T00:08:16;99972.50;;;3.57;100.00
39309;BME280;26019;47.510;19.122;2023-11-22T00:18:18;99993.72;;;3.53;100.00
39309;BME280;26019;47.510;19.122;2023-11-22T00:28:19;100005.66;;;3.54;100.00
39309;BME280;26019;47.510;19.122;2023-11-22T00:38:21;100005.41;;;3.41;100.00
39309;BME280;26019;47.510;19.122;2023-11-22T00:48:23;99998.63;;;3.42;100.00
39309;BME280;26019;47.510;19.122;2023-11-22T00:58:25;100007.53;;;3.64;100.00
39309;BME280;26019;47.510;19.122;2023-11-22T01:08:27;100008.56;;;3.74;100.00
39309;BME280;26019;47.510;19.122;2023-11-22T01:18:28;100022.97;;;3.70;100.00
39309;BME280;26019;47.510;19.122;2023-11-22T01:28:30;100014.63;;;3.81;100.00
39309;BME280;26019;47.510;19.122;2023-11-22T01:38:36;100031.63;;;3.79;100.00
39309;BME280;26019;47.510;19.122;2023-11-22T01:48:41;100038.44;;;3.78;100.00
39309;BME280;26019;47.510;19.122;2023-11-22T01:58:43;100045.25;;;3.78;100.00
39309;BME280;26019;47.510;19.122;2023-11-22T02:08:45;100053.88;;;3.84;100.00
39309;BME280;26019;47.510;19.122;2023-11-22T02:18:47;100062.13;;;3.69;100.00
39309;BME280;26019;47.510;19.122;2023-11-22T02:28:49;100064.22;;;3.43;100.00
39309;BME280;26019;47.510;19.122;2023-11-22T02:38:51;100072.78;;;3.47;100.00
39309;BME280;26019;47.510;19.122;2023-11-22T02:48:53;100078.31;;;3.24;100.00
39309;BME280;26019;47.510;19.122;2023-11-22T02:58:57;100101.25;;;3.21;100.00
39309;BME280;26019;47.510;19.122;2023-11-22T03:08:59;100109.28;;;2.98;100.00
39309;BME280;26019;47.510;19.122;2023-11-22T03:19:09;100116.00;;;2.94;100.00
39309;BME280;26019;47.510;19.122;2023-11-22T03:29:14;100126.22;;;2.94;100.00
39309;BME280;26019;47.510;19.122;2023-11-22T03:39:17;100134.97;;;3.06;100.00
39309;BME280;26019;47.510;19.122;2023-11-22T03:49:19;100128.94;;;3.02;100.00
39309;BME280;26019;47.510;19.122;2023-11-22T03:59:22;100143.53;;;3.08;100.00
39309;BME280;26019;47.510;19.122;2023-11-22T04:09:25;100145.25;;;3.09;100.00
39309;BME280;26019;47.510;19.122;2023-11-22T04:19:27;100162.41;;;3.16;100.00
39309;BME280;26019;47.510;19.122;2023-11-22T04:29:30;100163.09;;;3.07;100.00
39309;BME280;26019;47.510;19.122;2023-11-22T04:39:32;100163.22;;;3.12;100.00
39309;BME280;26019;47.510;19.122;2023-11-22T04:49:33;100186.13;;;3.10;100.00
39309;BME280;26019;47.510;19.122;2023-11-22T04:59:35;100190.47;;;3.13;100.00
39309;BME280;26019;47.510;19.122;2023-11-22T05:09:37;100195.59;;;3.14;100.00
39309;BME280;26019;47.510;19.122;2023-11-22T05:19:40;100213.47;;;3.14;100.00
39309;BME280;26019;47.510;19.122;2023-11-22T05:29:42;100226.09;;;3.08;100.00
39309;BME280;26019;47.510;19.122;2023-11-22T05:39:56;100236.94;;;2.98;100.00
39309;BME280;26019;47.510;19.122;2023-11-22T05:49:59;100250.31;;;2.89;100.00
39309;BME280;26019;47.510;19.122;2023-11-22T06:00:01;100253.50;;;2.79;100.00
39309;BME280;26019;47.510;19.122;2023-11-22T06:10:04;100270.16;;;2.66;100.00
39309;BME280;26019;47.510;19.122;2023-11-22T06:20:07;100300.69;;;2.61;100.00
39309;BME280;26019;47.510;19.122;2023-11-22T06:30:16;100314.59;;;2.73;100.00
39309;BME280;26019;47.510;19.122;2023-11-22T06:40:19;100328.31;;;3.11;100.00
39309;BME280;26019;47.510;19.122;2023-11-22T06:50:25;100337.25;;;3.29;100.00
39309;BME280;26019;47.510;19.122;2023-11-22T07:00:26;100346.66;;;3.67;100.00
39309;BME280;26019;47.510;19.122;2023-11-22T07:10:30;100368.59;;;3.95;100.00
39309;BME280;26019;47.510;19.122;2023-11-22T07:20:39;100382.59;;;4.14;100.00
39309;BME280;26019;47.510;19.122;2023-11-22T07:30:41;100392.50;;;4.39;100.00
39309;BME280;26019;47.510;19.122;2023-11-22T07:40:43;100378.66;;;5.76;100.00
39309;BME280;26019;47.510;19.122;2023-11-22T07:50:45;100383.13;;;6.54;100.00
39309;BME280;26019;47.510;19.122;2023-11-22T08:00:50;100401.53;;;8.03;100.00
39309;BME280;26019;47.510;19.122;2023-11-22T08:10:53;100421.75;;;9.34;100.00
39309;BME280;26019;47.510;19.122;2023-11-22T08:20:57;100432.00;;;10.26;100.00
39309;BME280;26019;47.510;19.122;2023-11-22T08:31:01;100447.91;;;12.27;79.06
39309;BME280;26019;47.510;19.122;2023-11-22T08:41:04;100454.41;;;13.26;69.76
39309;BME280;26019;47.510;19.122;2023-11-22T08:51:07;100453.44;;;12.73;76.79
39309;BME280;26019;47.510;19.122;2023-11-22T09:01:14;100436.75;;;19.42;44.36
39309;BME280;26019;47.510;19.122;2023-11-22T09:11:19;100446.66;;;20.96;39.90
39309;BME280;26019;47.510;19.122;2023-11-22T09:21:24;100447.53;;;20.19;40.41
39309;BME280;26019;47.510;19.122;2023-11-22T09:31:30;100454.72;;;22.18;36.95
39309;BME280;26019;47.510;19.122;2023-11-22T09:41:35;100462.69;;;22.16;35.12
39309;BME280;26019;47.510;19.122;2023-11-22T09:51:37;100483.03;;;23.44;32.97
39309;BME280;26019;47.510;19.122;2023-11-22T10:01:43;100480.66;;;20.80;37.45
39309;BME280;26019;47.510;19.122;2023-11-22T10:11:45;100487.78;;;21.71;34.79
39309;BME280;26019;47.510;19.122;2023-11-22T10:22:02;100489.13;;;22.48;34.35
39309;BME280;26019;47.510;19.122;2023-11-22T10:32:10;100501.63;;;23.88;32.38
39309;BME280;26019;47.510;19.122;2023-11-22T10:42:12;100524.81;;;25.00;30.00
39309;BME280;26019;47.510;19.122;2023-11-22T10:52:17;100539.28;;;25.22;28.92
39309;BME280;26019;47.510;19.122;2023-11-22T11:02:21;100545.41;;;24.95;29.05
39309;BME280;26019;47.510;19.122;2023-11-22T11:12:25;100569.28;;;24.05;30.89
39309;BME280;26019;47.510;19.122;2023-11-22T11:22:29;100558.72;;;23.42;32.26
39309;BME280;26019;47.510;19.122;2023-11-22T11:32:33;100578.22;;;21.30;34.33
39309;BME280;26019;47.510;19.122;2023-11-22T11:42:40;100585.53;;;21.61;34.27
39309;BME280;26019;47.510;19.122;2023-11-22T11:52:45;100595.75;;;19.18;37.01
39309;BME280;26019;47.510;19.122;2023-11-22T12:02:48;100603.22;;;20.59;36.27
39309;BME280;26019;47.510;19.122;2023-11-22T12:12:50;100610.13;;;20.41;34.83
39309;BME280;26019;47.510;19.122;2023-11-22T12:22:53;100616.03;;;16.23;43.38
39309;BME280;26019;47.510;19.122;2023-11-22T12:33:06;100630.56;;;12.81;54.11
39309;BME280;26019;47.510;19.122;2023-11-22T12:43:12;100649.06;;;13.26;55.67
39309;BME280;26019;47.510;19.122;2023-11-22T12:53:16;100670.31;;;11.54;66.74
39309;BME280;26019;47.510;19.122;2023-11-22T13:03:18;100679.97;;;10.77;81.54
39309;BME280;26019;47.510;19.122;2023-11-22T13:13:24;100695.47;;;10.99;84.61
39309;BME280;26019;47.510;19.122;2023-11-22T13:23:35;100683.78;;;12.21;73.44
39309;BME280;26019;47.510;19.122;2023-11-22T13:33:37;100674.44;;;11.90;73.60
39309;BME280;26019;47.510;19.122;2023-11-22T13:43:40;100679.44;;;12.23;71.84
39309;BME280;26019;47.510;19.122;2023-11-22T13:53:42;100701.47;;;11.19;81.42
39309;BME280;26019;47.510;19.122;2023-11-22T14:03:55;100727.38;;;10.53;93.92
39309;BME280;26019;47.510;19.122;2023-11-22T14:13:58;100718.75;;;10.46;99.18
39309;BME280;26019;47.510;19.122;2023-11-22T14:24:08;100718.25;;;9.13;100.00
39309;BME280;26019;47.510;19.122;2023-11-22T14:34:41;100736.09;;;7.98;100.00
39309;BME280;26019;47.510;19.122;2023-11-22T14:56:30;100770.34;;;7.29;100.00
39309;BME280;26019;47.510;19.122;2023-11-22T15:07:25;100780.47;;;7.17;100.00
39309;BME280;26019;47.510;19.122;2023-11-22T15:18:00;100807.59;;;6.99;100.00
39309;BME280;26019;47.510;19.122;2023-11-22T15:28:17;100787.50;;;6.77;100.00
39309;BME280;26019;47.510;19.122;2023-11-22T15:38:45;100810.47;;;6.67;100.00
39309;BME280;26019;47.510;19.122;2023-11-22T15:49:22;100837.47;;;6.45;100.00
39309;BME280;26019;47.510;19.122;2023-11-22T15:59:43;100880.78;;;6.30;100.00
39309;BME280;26019;47.510;19.122;2023-11-22T16:10:09;100870.34;;;6.20;100.00
39309;BME280;26019;47.510;19.122;2023-11-22T16:20:35;100900.00;;;6.07;100.00
39309;BME280;26019;47.510;19.122;2023-11-22T16:31:16;100916.41;;;5.77;100.00
39309;BME280;26019;47.510;19.122;2023-11-22T16:41:32;100915.69;;;5.46;100.00
39309;BME280;26019;47.510;19.122;2023-11-22T16:51:48;100941.00;;;5.34;100.00
39309;BME280;26019;47.510;19.122;2023-11-22T17:01:53;100950.69;;;5.12;100.00
39309;BME280;26019;47.510;19.122;2023-11-22T17:11:55;100945.66;;;5.15;100.00
39309;BME280;26019;47.510;19.122;2023-11-22T17:21:57;100957.53;;;5.12;100.00
39309;BME280;26019;47.510;19.122;2023-11-22T17:32:03;100970.53;;;4.87;100.00
39309;BME280;26019;47.510;19.122;2023-11-22T17:42:07;100999.28;;;4.48;100.00
39309;BME280;26019;47.510;19.122;2023-11-22T17:52:09;101029.31;;;4.54;100.00
39309;BME280;26019;47.510;19.122;2023-11-22T18:02:12;101046.41;;;4.55;100.00
39309;BME280;26019;47.510;19.122;2023-11-22T18:12:15;101037.13;;;4.29;100.00
39309;BME280;26019;47.510;19.122;2023-11-22T18:22:18;101047.63;;;4.11;100.00
39309;BME280;26019;47.510;19.122;2023-11-22T18:32:21;101077.56;;;4.14;100.00
39309;BME280;26019;47.510;19.122;2023-11-22T18:42:27;101081.66;;;3.83;100.00
39309;BME280;26019;47.510;19.122;2023-11-22T18:52:31;101085.81;;;3.55;100.00
39309;BME280;26019;47.510;19.122;2023-11-22T19:02:34;101077.31;;;3.80;100.00
39309;BME280;26019;47.510;19.122;2023-11-22T19:12:37;101080.22;;;3.91;100.00
39309;BME280;26019;47.510;19.122;2023-11-22T19:22:43;101091.38;;;3.93;100.00
39309;BME280;26019;47.510;19.122;2023-11-22T19:32:45;101092.59;;;3.79;100.00
39309;BME280;26019;47.510;19.122;2023-11-22T19:42:48;101111.25;;;3.52;100.00
39309;BME280;26019;47.510;19.122;2023-11-22T19:52:50;101150.84;;;3.16;100.00
39309;BME280;26019;47.510;19.122;2023-11-22T20:02:54;101166.19;;;2.72;100.00
39309;BME280;26019;47.510;19.122;2023-11-22T20:13:00;101201.44;;;2.38;100.00
39309;BME280;26019;47.510;19.122;2023-11-22T20:23:03;101200.22;;;1.89;100.00
39309;BME280;26019;47.510;19.122;2023-11-22T20:33:10;101165.31;;;1.69;100.00
39309;BME280;26019;47.510;19.122;2023-11-22T20:43:12;101163.56;;;1.48;100.00
39309;BME280;26019;47.510;19.122;2023-11-22T20:53:16;101173.09;;;1.52;100.00
39309;BME280;26019;47.510;19.122;2023-11-22T21:03:18;101176.16;;;1.45;100.00
39309;BME280;26019;47.510;19.122;2023-11-22T21:13:20;101174.94;;;1.37;100.00
39309;BME280;26019;47.510;19.122;2023-11-22T21:23:24;101181.38;;;1.28;100.00
39309;BME280;26019;47.510;19.122;2023-11-22T21:33:26;101200.66;;;1.23;100.00
39309;BME280;26019;47.510;19.122;2023-11-22T21:43:29;101192.09;;;0.85;100.00
39309;BME280;26019;47.510;19.122;2023-11-22T21:53:30;101187.44;;;0.76;100.00
39309;BME280;26019;47.510;19.122;2023-11-22T22:03:32;101207.38;;;0.85;100.00
39309;BME280;26019;47.510;19.122;2023-11-22T22:13:34;101208.50;;;0.73;100.00
39309;BME280;26019;47.510;19.122;2023-11-22T22:23:37;101213.66;;;0.57;100.00
39309;BME280;26019;47.510;19.122;2023-11-22T22:33:39;101218.94;;;0.43;100.00
39309;BME280;26019;47.510;19.122;2023-11-22T22:43:41;101219.56;;;0.39;100.00
39309;BME280;26019;47.510;19.122;2023-11-22T22:53:43;101210.06;;;0.19;100.00
39309;BME280;26019;47.510;19.122;2023-11-22T23:03:45;101176.88;;;0.16;100.00
39309;BME280;26019;47.510;19.122;2023-11-22T23:13:47;101171.69;;;0.31;100.00
39309;BME280;26019;47.510;19.122;2023-11-22T23:23:49;101154.16;;;0.19;100.00
39309;BME280;26019;47.510;19.122;2023-11-22T23:33:51;101168.94;;;0.09;100.00
39309;BME280;26019;47.510;19.122;2023-11-22T23:43:56;101174.47;;;0.19;100.00
39309;BME280;26019;47.510;19.122;2023-11-22T23:53:58;101168.56;;;0.02;100.00
